createdAt,value
2018-07-23T00:01:03.607Z,17.00
2018-07-23T00:06:09.014Z,17.00
2018-07-23T00:11:13.654Z,17.00
2018-07-23T00:16:18.930Z,17.00
2018-07-23T00:21:23.641Z,17.00
2018-07-23T00:26:29.145Z,17.00
2018-07-23T00:31:33.743Z,17.00
2018-07-23T00:36:38.837Z,17.00
2018-07-23T00:41:43.555Z,17.00
2018-07-23T00:46:48.265Z,17.00
2018-07-23T00:51:52.787Z,16.90
2018-07-23T00:56:57.498Z,16.90
2018-07-23T01:02:02.096Z,16.90
2018-07-23T01:07:06.930Z,16.90
2018-07-23T01:12:11.972Z,16.90
2018-07-23T01:17:16.620Z,16.90
2018-07-23T01:22:21.657Z,16.80
2018-07-23T01:27:26.574Z,16.70
2018-07-23T01:32:31.804Z,16.80
2018-07-23T01:37:36.608Z,16.80
2018-07-23T01:42:41.289Z,16.80
2018-07-23T01:47:46.495Z,16.80
2018-07-23T01:52:51.240Z,16.80
2018-07-23T01:57:56.121Z,16.80
2018-07-23T02:03:01.171Z,16.90
2018-07-23T02:08:06.017Z,16.90
2018-07-23T02:13:10.568Z,16.80
2018-07-23T02:18:15.310Z,16.70
2018-07-23T02:23:20.090Z,16.70
2018-07-23T02:28:24.662Z,16.60
2018-07-23T02:33:29.484Z,16.50
2018-07-23T02:38:34.197Z,16.40
2018-07-23T02:43:38.959Z,16.30
2018-07-23T02:48:44.130Z,16.30
2018-07-23T02:53:48.988Z,16.30
2018-07-23T02:58:54.369Z,16.40
2018-07-23T03:03:59.154Z,16.40
2018-07-23T03:09:04.343Z,16.40
2018-07-23T03:14:09.235Z,16.30
2018-07-23T03:19:13.945Z,16.20
2018-07-23T03:24:19.141Z,16.30
2018-07-23T03:29:24.098Z,16.30
2018-07-23T03:34:28.779Z,16.30
2018-07-23T03:39:33.764Z,16.30
2018-07-23T03:44:38.549Z,16.20
2018-07-23T03:49:43.541Z,16.20
2018-07-23T03:54:48.457Z,16.10
2018-07-23T03:59:53.360Z,15.90
2018-07-23T04:04:57.972Z,15.90
2018-07-23T04:10:02.973Z,15.90
2018-07-23T04:15:08.094Z,15.80
2018-07-23T04:20:12.801Z,15.90
2018-07-23T04:25:17.604Z,16.00
2018-07-23T04:30:22.502Z,16.00
2018-07-23T04:35:27.873Z,16.10
2018-07-23T04:40:32.900Z,16.20
2018-07-23T04:45:37.545Z,16.30
2018-07-23T04:50:42.235Z,16.50
2018-07-23T04:55:47.035Z,16.70
2018-07-23T05:00:52.219Z,16.80
2018-07-23T05:05:56.910Z,17.00
2018-07-23T05:11:02.258Z,17.20
2018-07-23T05:16:06.980Z,17.40
2018-07-23T05:21:11.781Z,17.30
2018-07-23T05:26:16.543Z,17.40
2018-07-23T05:31:21.386Z,17.40
2018-07-23T05:36:26.182Z,17.50
2018-07-23T05:41:30.921Z,17.50
2018-07-23T05:46:35.560Z,17.60
2018-07-23T05:51:40.525Z,17.60
2018-07-23T05:56:45.360Z,17.60
2018-07-23T06:01:50.100Z,17.80
2018-07-23T06:06:55.063Z,17.90
2018-07-23T06:11:59.548Z,18.00
2018-07-23T06:17:04.435Z,18.00
2018-07-23T06:22:09.209Z,18.10
2018-07-23T06:27:13.868Z,18.40
2018-07-23T06:32:18.649Z,18.40
2018-07-23T06:37:23.375Z,18.40
2018-07-23T06:42:27.944Z,18.50
2018-07-23T06:47:32.665Z,18.70
2018-07-23T06:52:37.386Z,18.90
2018-07-23T06:57:42.465Z,18.90
2018-07-23T07:02:47.308Z,19.20
2018-07-23T07:07:51.780Z,19.40
2018-07-23T07:12:57.212Z,19.70
2018-07-23T07:18:02.542Z,20.10
2018-07-23T07:23:07.433Z,20.20
2018-07-23T07:28:12.015Z,20.50
2018-07-23T07:33:17.456Z,20.60
2018-07-23T07:38:22.091Z,20.80
2018-07-23T07:43:26.754Z,20.90
2018-07-23T07:48:31.548Z,21.00
2018-07-23T07:53:36.544Z,21.00
2018-07-23T07:58:41.281Z,21.30
2018-07-23T08:03:46.266Z,21.90
2018-07-23T08:08:50.824Z,22.80
2018-07-23T08:13:55.375Z,22.70
2018-07-23T08:19:00.584Z,22.60
2018-07-23T08:24:06.608Z,22.50
2018-07-23T08:29:26.949Z,22.00
2018-07-23T08:34:31.777Z,21.50
2018-07-23T08:39:36.657Z,20.90
2018-07-23T08:44:44.364Z,21.20
2018-07-23T08:49:49.644Z,21.70
2018-07-23T08:54:54.532Z,21.40
2018-07-23T08:59:59.179Z,21.70
2018-07-23T09:05:04.431Z,22.30
2018-07-23T09:10:09.975Z,23.20
2018-07-23T09:15:14.773Z,23.30
2018-07-23T09:20:19.362Z,23.20
2018-07-23T09:25:27.472Z,22.40
2018-07-23T09:30:37.338Z,22.10
2018-07-23T09:35:41.985Z,21.80
2018-07-23T09:40:46.830Z,21.80
2018-07-23T09:45:51.399Z,21.30
2018-07-23T09:50:56.876Z,22.20
2018-07-23T09:56:01.650Z,22.50
2018-07-23T10:01:12.598Z,22.80
2018-07-23T10:06:17.531Z,23.90
2018-07-23T10:11:22.981Z,24.40
2018-07-23T10:16:28.141Z,23.70
2018-07-23T10:21:32.857Z,23.70
2018-07-23T10:26:37.392Z,23.20
2018-07-23T10:31:42.127Z,23.30
2018-07-23T10:36:46.968Z,23.10
2018-07-23T10:41:52.512Z,23.30
2018-07-23T10:46:57.377Z,23.50
2018-07-23T10:52:02.115Z,23.90
2018-07-23T10:57:06.764Z,24.30
2018-07-23T11:02:11.534Z,24.80
2018-07-23T11:07:16.262Z,24.90
2018-07-23T11:12:20.872Z,24.90
2018-07-23T11:17:25.603Z,25.00
2018-07-23T11:22:30.454Z,24.30
2018-07-23T11:27:35.703Z,24.60
2018-07-23T11:32:40.177Z,25.00
2018-07-23T11:37:44.850Z,25.60
2018-07-23T11:42:49.840Z,26.30
2018-07-23T11:47:54.309Z,25.60
2018-07-23T11:58:03.208Z,26.30
2018-07-23T12:03:08.044Z,27.20
2018-07-23T12:08:12.776Z,27.50
2018-07-23T12:13:17.448Z,28.10
2018-07-23T12:18:22.056Z,28.60
2018-07-23T12:23:26.651Z,30.10
2018-07-23T12:28:31.409Z,30.80
2018-07-23T12:33:36.140Z,30.40
2018-07-23T12:38:41.513Z,30.50
2018-07-23T12:43:46.231Z,32.40
2018-07-23T12:48:50.858Z,32.60
2018-07-23T12:53:55.585Z,31.20
2018-07-23T12:59:00.356Z,31.20
2018-07-23T13:04:05.013Z,31.90
2018-07-23T13:09:12.062Z,32.20
2018-07-23T13:14:16.833Z,31.20
2018-07-23T13:19:21.661Z,32.80
2018-07-23T13:24:26.229Z,33.80
2018-07-23T13:29:30.788Z,32.90
2018-07-23T13:34:35.444Z,31.60
2018-07-23T13:39:40.185Z,30.80
2018-07-23T13:44:45.429Z,29.70
2018-07-23T13:49:51.093Z,29.90
2018-07-23T13:54:56.065Z,31.70
2018-07-23T14:00:01.070Z,33.60
2018-07-23T14:05:05.855Z,31.60
2018-07-23T14:10:10.567Z,31.10
2018-07-23T14:15:15.314Z,31.90
2018-07-23T14:20:20.350Z,31.70
2018-07-23T14:25:25.091Z,31.80
2018-07-23T14:30:29.912Z,32.40
2018-07-23T14:35:34.719Z,33.00
2018-07-23T14:40:39.488Z,32.60
2018-07-23T14:45:44.408Z,32.60
2018-07-23T14:50:49.865Z,33.30
2018-07-23T14:55:54.817Z,32.30
2018-07-23T15:00:59.521Z,30.80
2018-07-23T15:06:04.372Z,31.20
2018-07-23T15:11:09.277Z,31.60
2018-07-23T15:16:13.962Z,31.30
2018-07-23T15:21:18.992Z,31.00
2018-07-23T15:26:23.888Z,30.70
2018-07-23T15:31:28.764Z,31.50
2018-07-23T15:36:33.740Z,32.00
2018-07-23T15:41:38.570Z,32.30
2018-07-23T15:46:43.399Z,32.70
2018-07-23T15:51:48.125Z,32.30
2018-07-23T15:56:52.860Z,32.50
2018-07-23T16:01:57.879Z,32.10
2018-07-23T16:07:02.743Z,32.20
2018-07-23T16:12:07.570Z,32.00
2018-07-23T16:17:12.274Z,31.60
2018-07-23T16:22:16.982Z,31.70
2018-07-23T16:27:21.656Z,32.40
2018-07-23T16:32:26.836Z,32.70
2018-07-23T16:37:32.168Z,32.20
2018-07-23T16:42:36.938Z,32.90
2018-07-23T16:47:42.508Z,32.20
2018-07-23T16:52:47.058Z,31.30
2018-07-23T16:57:51.819Z,29.80
2018-07-23T17:02:56.578Z,28.40
2018-07-23T17:08:01.271Z,27.50
2018-07-23T17:13:05.861Z,27.10
2018-07-23T17:18:10.746Z,26.90
2018-07-23T17:23:15.479Z,26.70
2018-07-23T17:28:20.151Z,26.60
2018-07-23T17:33:24.771Z,26.50
2018-07-23T17:38:29.715Z,26.10
2018-07-23T17:43:34.468Z,25.80
2018-07-23T17:48:39.283Z,25.50
2018-07-23T17:53:44.050Z,25.50
2018-07-23T17:58:49.588Z,25.40
2018-07-23T18:03:54.440Z,25.50
2018-07-23T18:08:59.281Z,25.40
2018-07-23T18:14:04.227Z,25.30
2018-07-23T18:19:08.861Z,25.30
2018-07-23T18:24:13.677Z,25.30
2018-07-23T18:29:18.319Z,25.00
2018-07-23T18:34:22.942Z,24.80
2018-07-23T18:39:27.503Z,24.60
2018-07-23T18:44:32.435Z,24.40
2018-07-23T18:49:48.976Z,24.10
2018-07-23T18:54:55.995Z,23.80
2018-07-23T19:00:01.406Z,23.50
2018-07-23T19:05:06.815Z,23.20
2018-07-23T19:10:11.514Z,22.90
2018-07-23T19:15:16.184Z,22.60
2018-07-23T19:20:21.134Z,22.40
2018-07-23T19:25:26.700Z,22.20
2018-07-23T19:30:32.408Z,21.90
2018-07-23T19:35:37.003Z,21.80
2018-07-23T19:40:41.684Z,21.70
2018-07-23T19:45:46.260Z,21.60
2018-07-23T19:50:51.314Z,21.50
2018-07-23T19:55:56.145Z,21.40
2018-07-23T20:01:00.990Z,21.20
2018-07-23T20:06:05.719Z,21.00
2018-07-23T20:11:11.221Z,20.90
2018-07-23T20:16:16.102Z,20.80
2018-07-23T20:21:20.941Z,20.70
2018-07-23T20:26:25.691Z,20.70
2018-07-23T20:31:30.280Z,20.70
2018-07-23T20:36:35.446Z,20.70
2018-07-23T20:41:40.241Z,20.40
2018-07-23T20:46:45.362Z,20.20
2018-07-23T20:51:50.437Z,20.10
2018-07-23T20:56:55.212Z,20.20
2018-07-23T21:01:59.844Z,20.30
2018-07-23T21:07:04.829Z,20.30
2018-07-23T21:12:09.807Z,20.20
2018-07-23T21:17:14.592Z,20.20
2018-07-23T21:22:19.441Z,20.20
2018-07-23T21:27:24.104Z,20.10
2018-07-23T21:32:28.929Z,20.00
2018-07-23T21:37:34.532Z,19.90
2018-07-23T21:42:39.288Z,19.60
2018-07-23T21:47:44.377Z,19.10
2018-07-23T21:52:49.708Z,18.90
2018-07-23T21:57:55.097Z,18.90
2018-07-23T22:03:00.493Z,18.80
2018-07-23T22:08:05.606Z,18.90
2018-07-23T22:13:10.592Z,19.10
2018-07-23T22:18:15.317Z,19.10
2018-07-23T22:23:19.944Z,19.10
2018-07-23T22:28:25.897Z,19.00
2018-07-23T22:33:31.243Z,18.90
2018-07-23T22:38:35.941Z,18.70
2018-07-23T22:43:40.741Z,18.50
2018-07-23T22:48:45.562Z,18.30
2018-07-23T22:53:50.294Z,18.20
2018-07-23T22:58:55.886Z,18.10
2018-07-23T23:04:00.933Z,18.20
2018-07-23T23:09:07.851Z,18.20
2018-07-23T23:14:12.517Z,18.30
2018-07-23T23:19:17.376Z,18.30
2018-07-23T23:24:22.218Z,18.40
2018-07-23T23:29:26.876Z,18.40
2018-07-23T23:34:31.684Z,18.50
2018-07-23T23:39:36.323Z,18.60
2018-07-23T23:44:41.164Z,18.60
2018-07-23T23:49:46.112Z,18.40
2018-07-23T23:54:50.829Z,18.20
2018-07-23T23:59:55.489Z,18.00
